createdAt,value
2018-07-21T00:02:14.008Z,4.90
2018-07-21T00:04:42.502Z,4.87
2018-07-21T00:07:11.050Z,5.17
2018-07-21T00:09:39.658Z,5.47
2018-07-21T00:12:08.281Z,4.83
2018-07-21T00:14:36.929Z,5.00
2018-07-21T00:17:05.466Z,4.83
2018-07-21T00:19:34.200Z,4.00
2018-07-21T00:22:02.770Z,4.03
2018-07-21T00:24:31.269Z,4.87
2018-07-21T00:26:59.807Z,4.20
2018-07-21T00:29:28.389Z,4.53
2018-07-21T00:31:56.901Z,5.97
2018-07-21T00:34:25.387Z,4.30
2018-07-21T00:36:53.897Z,4.60
2018-07-21T00:39:22.412Z,8.77
2018-07-21T00:41:50.974Z,5.53
2018-07-21T00:44:19.497Z,5.40
2018-07-21T00:46:48.031Z,4.33
2018-07-21T00:49:16.546Z,4.53
2018-07-21T00:51:45.080Z,4.90
2018-07-21T00:54:13.594Z,4.10
2018-07-21T00:56:42.100Z,3.97
2018-07-21T00:59:10.598Z,4.10
2018-07-21T01:01:39.199Z,4.17
2018-07-21T01:04:07.716Z,4.13
2018-07-21T01:06:36.242Z,4.30
2018-07-21T01:09:07.397Z,3.70
2018-07-21T01:11:35.622Z,4.40
2018-07-21T01:14:04.166Z,4.20
2018-07-21T01:16:32.690Z,3.90
2018-07-21T01:19:01.183Z,3.70
2018-07-21T01:21:29.440Z,8.70
2018-07-21T01:23:57.934Z,14.10
2018-07-21T01:26:26.448Z,7.80
2018-07-21T01:28:54.931Z,12.20
2018-07-21T01:31:23.441Z,5.60
2018-07-21T01:33:52.021Z,3.47
2018-07-21T01:36:20.545Z,3.87
2018-07-21T01:38:49.116Z,3.37
2018-07-21T01:41:17.692Z,3.67
2018-07-21T01:43:46.206Z,3.17
2018-07-21T01:46:14.721Z,3.37
2018-07-21T01:48:43.201Z,3.33
2018-07-21T01:51:11.741Z,3.10
2018-07-21T01:53:40.223Z,3.40
2018-07-21T01:56:08.718Z,3.30
2018-07-21T01:58:37.236Z,3.70
2018-07-21T02:01:06.252Z,3.20
2018-07-21T02:03:34.847Z,3.77
2018-07-21T02:06:03.361Z,3.60
2018-07-21T02:08:32.156Z,3.37
2018-07-21T02:11:00.670Z,4.50
2018-07-21T02:13:29.188Z,4.70
2018-07-21T02:15:57.670Z,4.30
2018-07-21T02:18:26.182Z,3.57
2018-07-21T02:20:54.683Z,5.80
2018-07-21T02:23:23.205Z,4.73
2018-07-21T02:25:51.691Z,8.13
2018-07-21T02:28:20.208Z,28.17
2018-07-21T02:30:48.692Z,17.30
2018-07-21T02:33:17.212Z,9.90
2018-07-21T02:35:45.722Z,5.87
2018-07-21T02:38:14.258Z,5.50
2018-07-21T02:40:42.753Z,8.07
2018-07-21T02:43:11.271Z,4.23
2018-07-21T02:45:39.861Z,3.33
2018-07-21T02:48:08.379Z,3.53
2018-07-21T02:50:36.876Z,3.20
2018-07-21T02:53:05.419Z,7.07
2018-07-21T02:55:33.943Z,6.40
2018-07-21T02:58:02.471Z,11.80
2018-07-21T03:00:31.005Z,17.00
2018-07-21T03:02:59.511Z,12.57
2018-07-21T03:05:28.037Z,6.17
2018-07-21T03:07:56.558Z,10.93
2018-07-21T03:10:25.113Z,8.50
2018-07-21T03:12:53.684Z,10.67
2018-07-21T03:15:22.210Z,6.97
2018-07-21T03:17:50.802Z,17.23
2018-07-21T03:20:19.358Z,17.60
2018-07-21T03:22:48.134Z,10.03
2018-07-21T03:25:16.634Z,5.53
2018-07-21T03:27:45.182Z,5.83
2018-07-21T03:30:13.698Z,4.03
2018-07-21T03:32:42.246Z,4.40
2018-07-21T03:35:10.770Z,4.10
2018-07-21T03:37:39.288Z,3.70
2018-07-21T03:40:07.818Z,3.60
2018-07-21T03:42:36.350Z,3.47
2018-07-21T03:45:04.933Z,5.40
2018-07-21T03:47:33.492Z,6.10
2018-07-21T03:50:02.011Z,9.23
2018-07-21T03:52:30.530Z,8.13
2018-07-21T03:54:59.090Z,12.97
2018-07-21T03:57:27.573Z,9.90
2018-07-21T03:59:56.109Z,6.57
2018-07-21T04:02:24.654Z,15.40
2018-07-21T04:04:53.226Z,12.40
2018-07-21T04:07:21.741Z,8.70
2018-07-21T04:09:50.770Z,9.30
2018-07-21T04:12:19.861Z,15.50
2018-07-21T04:14:48.395Z,7.30
2018-07-21T04:17:22.385Z,5.70
2018-07-21T04:19:51.006Z,7.07
2018-07-21T04:22:19.657Z,4.97
2018-07-21T04:24:48.219Z,4.20
2018-07-21T04:27:16.805Z,4.00
2018-07-21T04:29:45.350Z,4.60
2018-07-21T04:32:14.321Z,5.20
2018-07-21T04:34:42.961Z,7.77
2018-07-21T04:37:11.478Z,4.90
2018-07-21T04:39:40.001Z,8.27
2018-07-21T04:42:08.650Z,5.40
2018-07-21T04:44:37.446Z,7.57
2018-07-21T04:47:06.036Z,4.93
2018-07-21T04:49:34.583Z,7.70
2018-07-21T04:52:03.091Z,5.90
2018-07-21T04:54:31.674Z,12.80
2018-07-21T04:57:00.282Z,11.00
2018-07-21T04:59:28.802Z,7.40
2018-07-21T05:01:57.320Z,5.60
2018-07-21T05:04:25.905Z,8.20
2018-07-21T05:06:54.415Z,8.30
2018-07-21T05:09:23.075Z,10.77
2018-07-21T05:11:51.673Z,5.30
2018-07-21T05:14:20.302Z,6.70
2018-07-21T05:16:48.834Z,10.60
2018-07-21T05:19:17.365Z,11.30
2018-07-21T05:21:46.010Z,9.53
2018-07-21T05:24:14.553Z,10.40
2018-07-21T05:26:43.063Z,9.40
2018-07-21T05:29:11.595Z,5.30
2018-07-21T05:31:40.194Z,5.37
2018-07-21T05:34:08.741Z,6.90
2018-07-21T05:36:37.263Z,6.40
2018-07-21T05:39:07.384Z,12.37
2018-07-21T05:41:36.034Z,7.70
2018-07-21T05:44:04.606Z,8.53
2018-07-21T05:46:33.127Z,6.83
2018-07-21T05:49:01.690Z,5.60
2018-07-21T05:51:30.216Z,6.23
2018-07-21T05:53:58.768Z,5.27
2018-07-21T05:56:27.276Z,6.30
2018-07-21T05:58:55.784Z,6.00
2018-07-21T06:01:24.345Z,5.73
2018-07-21T06:03:53.068Z,5.20
2018-07-21T06:06:21.674Z,5.43
2018-07-21T06:08:50.198Z,5.63
2018-07-21T06:11:18.761Z,5.63
2018-07-21T06:13:47.268Z,5.30
2018-07-21T06:16:15.986Z,5.50
2018-07-21T06:18:44.552Z,8.17
2018-07-21T06:21:13.049Z,5.70
2018-07-21T06:23:41.595Z,5.00
2018-07-21T06:26:10.693Z,4.90
2018-07-21T06:28:39.212Z,4.80
2018-07-21T06:31:07.822Z,4.60
2018-07-21T06:33:36.347Z,5.37
2018-07-21T06:36:04.933Z,5.47
2018-07-21T06:38:33.447Z,4.80
2018-07-21T06:41:01.981Z,5.63
2018-07-21T06:43:30.503Z,8.23
2018-07-21T06:45:59.031Z,4.90
2018-07-21T06:48:27.539Z,4.67
2018-07-21T06:50:56.094Z,4.80
2018-07-21T06:53:24.618Z,5.30
2018-07-21T06:55:53.173Z,5.70
2018-07-21T06:58:21.691Z,5.10
2018-07-21T07:00:50.237Z,6.50
2018-07-21T07:03:18.568Z,4.70
2018-07-21T07:05:47.112Z,4.37
2018-07-21T07:08:24.270Z,4.90
2018-07-21T07:10:52.925Z,4.37
2018-07-21T07:13:21.448Z,3.77
2018-07-21T07:15:49.766Z,4.50
2018-07-21T07:18:18.298Z,4.40
2018-07-21T07:20:46.851Z,3.90
2018-07-21T07:23:15.391Z,5.07
2018-07-21T07:25:43.962Z,5.23
2018-07-21T07:28:12.472Z,3.87
2018-07-21T07:30:41.029Z,3.93
2018-07-21T07:33:09.553Z,6.20
2018-07-21T07:35:38.155Z,3.60
2018-07-21T07:38:06.752Z,3.70
2018-07-21T07:40:35.371Z,3.63
2018-07-21T07:43:03.909Z,4.07
2018-07-21T07:45:32.589Z,3.47
2018-07-21T07:48:01.110Z,3.60
2018-07-21T07:50:29.655Z,3.70
2018-07-21T07:52:58.553Z,2.80
2018-07-21T07:55:31.333Z,3.10
2018-07-21T07:58:00.613Z,5.00
2018-07-21T08:00:29.603Z,2.83
2018-07-21T08:02:58.816Z,2.83
2018-07-21T08:05:27.644Z,2.63
2018-07-21T08:07:56.175Z,2.73
2018-07-21T08:10:24.733Z,2.80
2018-07-21T08:12:53.254Z,5.63
2018-07-21T08:15:22.553Z,3.63
2018-07-21T08:17:51.673Z,6.20
2018-07-21T08:20:20.209Z,2.43
2018-07-21T08:22:48.771Z,2.40
2018-07-21T08:25:17.326Z,2.27
2018-07-21T08:27:45.898Z,2.40
2018-07-21T08:30:14.563Z,4.50
2018-07-21T08:32:43.115Z,2.60
2018-07-21T08:35:11.753Z,2.67
2018-07-21T08:37:40.730Z,3.73
2018-07-21T08:40:09.641Z,2.40
2018-07-21T08:42:38.310Z,2.17
2018-07-21T08:45:08.157Z,2.43
2018-07-21T08:47:36.726Z,2.20
2018-07-21T08:50:06.001Z,2.00
2018-07-21T08:52:34.545Z,2.50
2018-07-21T08:55:03.084Z,2.27
2018-07-21T08:57:31.680Z,2.13
2018-07-21T09:00:00.206Z,2.10
2018-07-21T09:02:28.842Z,2.30
2018-07-21T09:04:57.374Z,2.93
2018-07-21T09:07:25.913Z,2.27
2018-07-21T09:09:54.497Z,2.30
2018-07-21T09:12:23.019Z,2.80
2018-07-21T09:14:51.559Z,2.93
2018-07-21T09:17:21.089Z,2.60
2018-07-21T09:19:50.872Z,2.27
2018-07-21T09:22:19.681Z,2.83
2018-07-21T09:24:48.749Z,2.70
2018-07-21T09:27:17.268Z,2.57
2018-07-21T09:29:45.926Z,2.10
2018-07-21T09:32:14.517Z,2.47
2018-07-21T09:34:43.698Z,2.70
2018-07-21T09:37:12.219Z,2.80
2018-07-21T09:39:40.745Z,2.73
2018-07-21T09:42:09.318Z,2.10
2018-07-21T09:44:37.818Z,3.20
2018-07-21T09:47:06.591Z,2.63
2018-07-21T09:49:35.754Z,2.60
2018-07-21T09:52:04.403Z,2.60
2018-07-21T09:54:32.990Z,2.60
2018-07-21T09:57:01.519Z,2.90
2018-07-21T09:59:30.025Z,2.77
2018-07-21T10:01:58.567Z,2.90
2018-07-21T10:04:27.539Z,2.73
2018-07-21T10:06:56.388Z,3.53
2018-07-21T10:09:25.226Z,2.93
2018-07-21T10:11:54.057Z,3.20
2018-07-21T10:14:23.138Z,3.30
2018-07-21T10:16:51.654Z,2.80
2018-07-21T10:19:20.143Z,3.20
2018-07-21T10:21:48.890Z,3.30
2018-07-21T10:24:22.687Z,3.10
2018-07-21T10:26:56.363Z,3.40
2018-07-21T10:29:25.183Z,4.27
2018-07-21T10:31:53.827Z,3.30
2018-07-21T10:34:22.436Z,3.50
2018-07-21T10:36:50.921Z,3.63
2018-07-21T10:39:19.458Z,3.30
2018-07-21T10:41:47.986Z,2.90
2018-07-21T10:44:16.528Z,2.97
2018-07-21T10:46:45.152Z,3.10
2018-07-21T10:49:13.680Z,3.47
2018-07-21T10:51:42.202Z,3.10
2018-07-21T10:54:10.733Z,3.07
2018-07-21T10:56:39.297Z,3.00
2018-07-21T10:59:07.869Z,3.27
2018-07-21T11:01:36.366Z,7.47
2018-07-21T11:04:04.970Z,4.30
2018-07-21T11:06:33.514Z,3.50
2018-07-21T11:09:02.027Z,5.40
2018-07-21T11:11:30.589Z,3.60
2018-07-21T11:13:59.149Z,3.53
2018-07-21T11:16:27.669Z,3.43
2018-07-21T11:18:56.206Z,3.33
2018-07-21T11:21:24.716Z,3.80
2018-07-21T11:23:53.226Z,14.20
2018-07-21T11:26:21.717Z,3.60
2018-07-21T11:28:50.245Z,3.93
2018-07-21T11:31:18.749Z,3.47
2018-07-21T11:33:47.307Z,3.30
2018-07-21T11:36:16.060Z,3.50
2018-07-21T11:38:44.378Z,4.50
2018-07-21T11:41:12.933Z,3.60
2018-07-21T11:43:41.471Z,3.80
2018-07-21T11:46:09.963Z,3.67
2018-07-21T11:48:38.528Z,3.73
2018-07-21T11:51:07.026Z,3.60
2018-07-21T11:53:35.557Z,3.63
2018-07-21T11:56:04.196Z,4.50
2018-07-21T11:58:32.737Z,3.57
2018-07-21T12:01:01.252Z,3.13
2018-07-21T12:03:29.774Z,3.60
2018-07-21T12:05:58.263Z,4.80
2018-07-21T12:08:26.795Z,4.10
2018-07-21T12:10:55.309Z,3.50
2018-07-21T12:13:23.838Z,4.40
2018-07-21T12:15:52.393Z,3.90
2018-07-21T12:18:20.917Z,3.77
2018-07-21T12:20:49.418Z,5.23
2018-07-21T12:23:18.012Z,3.80
2018-07-21T12:25:46.501Z,3.60
2018-07-21T12:28:14.985Z,4.03
2018-07-21T12:30:43.532Z,3.80
2018-07-21T12:33:12.107Z,4.10
2018-07-21T12:35:40.740Z,4.90
2018-07-21T12:38:09.245Z,4.20
2018-07-21T12:40:37.757Z,4.73
2018-07-21T12:43:06.491Z,4.30
2018-07-21T12:45:35.028Z,4.20
2018-07-21T12:48:03.720Z,4.23
2018-07-21T12:50:32.246Z,3.70
2018-07-21T12:53:00.803Z,4.80
2018-07-21T12:55:29.486Z,7.07
2018-07-21T12:57:58.013Z,4.83
2018-07-21T13:00:26.531Z,3.83
2018-07-21T13:02:55.037Z,5.17
2018-07-21T13:05:23.573Z,7.27
2018-07-21T13:07:52.115Z,5.90
2018-07-21T13:10:20.685Z,10.50
2018-07-21T13:12:49.191Z,5.30
2018-07-21T13:15:17.875Z,7.43
2018-07-21T13:17:46.395Z,7.47
2018-07-21T13:20:14.954Z,5.20
2018-07-21T13:22:43.465Z,4.70
2018-07-21T13:25:12.031Z,6.90
2018-07-21T13:27:40.530Z,4.63
2018-07-21T13:30:10.094Z,3.90
2018-07-21T13:32:38.631Z,4.70
2018-07-21T13:35:08.295Z,3.63
2018-07-21T13:37:36.829Z,4.00
2018-07-21T13:40:06.323Z,4.90
2018-07-21T13:42:34.842Z,5.50
2018-07-21T13:45:03.453Z,5.50
2018-07-21T13:47:32.106Z,6.73
2018-07-21T13:50:00.649Z,4.73
2018-07-21T13:52:29.158Z,4.53
2018-07-21T13:54:58.051Z,6.00
2018-07-21T13:57:31.981Z,4.27
2018-07-21T14:00:00.547Z,4.90
2018-07-21T14:02:29.054Z,4.00
2018-07-21T14:04:57.673Z,4.00
2018-07-21T14:07:26.945Z,4.00
2018-07-21T14:09:55.750Z,3.93
2018-07-21T14:12:24.314Z,10.87
2018-07-21T14:14:52.903Z,7.00
2018-07-21T14:17:21.640Z,4.90
2018-07-21T14:19:50.177Z,4.00
2018-07-21T14:22:18.690Z,4.80
2018-07-21T14:24:47.185Z,6.37
2018-07-21T14:27:15.710Z,4.23
2018-07-21T14:29:44.280Z,4.47
2018-07-21T14:32:13.238Z,8.60
2018-07-21T14:34:41.808Z,5.90
2018-07-21T14:37:10.380Z,4.30
2018-07-21T14:39:39.173Z,3.83
2018-07-21T14:42:07.783Z,4.60
2018-07-21T14:44:36.439Z,4.30
2018-07-21T14:47:05.524Z,4.00
2018-07-21T14:49:34.047Z,3.80
2018-07-21T14:52:02.329Z,3.83
2018-07-21T14:54:30.936Z,4.17
2018-07-21T14:56:59.591Z,4.03
2018-07-21T14:59:28.876Z,4.07
2018-07-21T15:01:57.493Z,3.80
2018-07-21T15:04:26.096Z,4.10
2018-07-21T15:06:54.702Z,4.80
2018-07-21T15:09:23.497Z,4.87
2018-07-21T15:11:52.396Z,4.70
2018-07-21T15:14:21.165Z,5.80
2018-07-21T15:16:49.756Z,5.07
2018-07-21T15:19:18.270Z,4.63
2018-07-21T15:21:46.821Z,4.20
2018-07-21T15:24:15.397Z,4.50
2018-07-21T15:26:43.982Z,4.63
2018-07-21T15:29:12.501Z,4.60
2018-07-21T15:31:41.047Z,4.67
2018-07-21T15:34:09.616Z,4.60
2018-07-21T15:36:38.194Z,4.50
2018-07-21T15:39:08.568Z,5.00
2018-07-21T15:41:37.210Z,5.03
2018-07-21T15:44:06.005Z,4.83
2018-07-21T15:46:34.573Z,9.17
2018-07-21T15:49:03.180Z,7.27
2018-07-21T15:51:32.575Z,6.80
2018-07-21T15:54:01.105Z,5.50
2018-07-21T15:56:29.681Z,5.50
2018-07-21T15:58:58.178Z,4.87
2018-07-21T16:01:27.052Z,5.03
2018-07-21T16:03:55.622Z,7.67
2018-07-21T16:06:24.266Z,6.40
2018-07-21T16:08:52.773Z,6.23
2018-07-21T16:11:21.346Z,8.43
2018-07-21T16:13:49.896Z,6.50
2018-07-21T16:16:18.420Z,7.20
2018-07-21T16:18:47.020Z,6.10
2018-07-21T16:21:15.537Z,4.93
2018-07-21T16:23:44.319Z,4.53
2018-07-21T16:26:12.871Z,6.33
2018-07-21T16:28:41.414Z,4.57
2018-07-21T16:31:09.990Z,5.87
2018-07-21T16:33:38.549Z,6.27
2018-07-21T16:36:07.053Z,5.10
2018-07-21T16:38:35.593Z,6.93
2018-07-21T16:41:04.127Z,7.80
2018-07-21T16:43:33.220Z,4.77
2018-07-21T16:46:01.807Z,4.90
2018-07-21T16:48:30.112Z,4.23
2018-07-21T16:50:58.689Z,6.40
2018-07-21T16:53:27.257Z,5.17
2018-07-21T16:55:55.763Z,4.40
2018-07-21T16:58:25.250Z,4.10
2018-07-21T17:00:54.279Z,4.07
2018-07-21T17:03:22.897Z,4.50
2018-07-21T17:05:51.407Z,3.97
2018-07-21T17:08:20.405Z,4.63
2018-07-21T17:10:49.018Z,4.57
2018-07-21T17:13:17.692Z,5.00
2018-07-21T17:15:50.697Z,3.80
2018-07-21T17:18:20.107Z,3.90
2018-07-21T17:20:48.613Z,3.07
2018-07-21T17:23:17.196Z,3.77
2018-07-21T17:25:46.269Z,3.03
2018-07-21T17:28:14.791Z,3.30
2018-07-21T17:30:43.332Z,3.00
2018-07-21T17:33:11.861Z,2.70
2018-07-21T17:35:40.355Z,3.47
2018-07-21T17:38:08.918Z,4.23
2018-07-21T17:40:37.433Z,4.00
2018-07-21T17:43:05.971Z,4.73
2018-07-21T17:45:34.562Z,4.20
2018-07-21T17:48:03.107Z,3.97
2018-07-21T17:50:31.705Z,4.30
2018-07-21T17:53:00.171Z,4.80
2018-07-21T17:55:28.683Z,4.90
2018-07-21T17:57:57.262Z,4.27
2018-07-21T18:00:25.811Z,4.40
2018-07-21T18:02:54.417Z,5.00
2018-07-21T18:05:23.017Z,5.53
2018-07-21T18:07:51.513Z,16.90
2018-07-21T18:10:20.086Z,14.37
2018-07-21T18:12:48.739Z,8.63
2018-07-21T18:15:17.439Z,7.00
2018-07-21T18:17:45.978Z,4.83
2018-07-21T18:20:14.552Z,8.27
2018-07-21T18:22:43.094Z,7.33
2018-07-21T18:25:11.674Z,5.70
2018-07-21T18:27:40.187Z,5.43
2018-07-21T18:30:08.725Z,4.63
2018-07-21T18:32:37.245Z,5.40
2018-07-21T18:35:05.921Z,5.77
2018-07-21T18:37:34.417Z,5.27
2018-07-21T18:40:03.109Z,5.33
2018-07-21T18:42:31.638Z,4.80
2018-07-21T18:45:00.201Z,4.60
2018-07-21T18:47:29.001Z,5.20
2018-07-21T18:49:57.315Z,5.50
2018-07-21T18:52:25.832Z,12.63
2018-07-21T18:54:54.394Z,8.20
2018-07-21T18:57:22.994Z,6.00
2018-07-21T18:59:51.644Z,9.73
2018-07-21T19:02:20.130Z,15.40
2018-07-21T19:04:48.710Z,5.93
2018-07-21T19:07:17.367Z,6.80
2018-07-21T19:09:46.764Z,8.83
2018-07-21T19:12:20.865Z,4.10
2018-07-21T19:14:50.045Z,3.67
2018-07-21T19:17:18.639Z,3.03
2018-07-21T19:19:52.467Z,2.73
2018-07-21T19:22:21.010Z,3.70
2018-07-21T19:24:49.858Z,6.40
2018-07-21T19:27:23.704Z,3.33
2018-07-21T19:29:52.441Z,2.80
2018-07-21T19:33:25.301Z,2.47
2018-07-21T19:35:54.318Z,3.10
2018-07-21T19:38:23.293Z,8.97
2018-07-21T19:40:52.462Z,2.87
2018-07-21T19:43:21.653Z,4.27
2018-07-21T19:45:50.341Z,2.80
2018-07-21T19:48:19.502Z,3.00
2018-07-21T19:50:47.740Z,3.00
2018-07-21T19:53:16.606Z,4.60
2018-07-21T19:55:45.466Z,3.20
2018-07-21T19:58:13.915Z,2.80
2018-07-21T20:00:42.565Z,2.97
2018-07-21T20:03:11.463Z,3.17
2018-07-21T20:05:40.498Z,4.00
2018-07-21T20:08:08.993Z,3.33
2018-07-21T20:10:37.701Z,4.10
2018-07-21T20:13:06.531Z,4.57
2018-07-21T20:15:35.345Z,4.30
2018-07-21T20:18:04.008Z,4.70
2018-07-21T20:20:32.859Z,5.23
2018-07-21T20:23:01.750Z,5.20
2018-07-21T20:25:30.515Z,6.83
2018-07-21T20:27:59.118Z,5.57
2018-07-21T20:30:27.665Z,4.77
2018-07-21T20:32:56.328Z,6.87
2018-07-21T20:35:25.349Z,6.27
2018-07-21T20:37:54.218Z,6.07
2018-07-21T20:40:22.881Z,5.60
2018-07-21T20:42:51.577Z,6.13
2018-07-21T20:45:20.074Z,6.10
2018-07-21T20:47:48.573Z,5.63
2018-07-21T20:50:17.117Z,6.50
2018-07-21T20:52:45.715Z,6.03
2018-07-21T20:55:14.210Z,5.90
2018-07-21T20:57:42.721Z,6.50
2018-07-21T21:00:11.368Z,5.60
2018-07-21T21:02:39.885Z,7.20
2018-07-21T21:05:08.372Z,7.03
2018-07-21T21:07:37.006Z,6.00
2018-07-21T21:10:06.010Z,6.00
2018-07-21T21:12:34.573Z,8.13
2018-07-21T21:15:03.835Z,8.10
2018-07-21T21:17:32.363Z,6.27
2018-07-21T21:20:00.878Z,5.30
2018-07-21T21:22:29.401Z,5.53
2018-07-21T21:24:57.917Z,5.60
2018-07-21T21:27:26.441Z,6.00
2018-07-21T21:29:54.950Z,10.40
2018-07-21T21:32:23.457Z,5.90
2018-07-21T21:34:52.030Z,5.63
2018-07-21T21:37:20.729Z,5.60
2018-07-21T21:39:49.229Z,6.50
2018-07-21T21:42:17.859Z,6.30
2018-07-21T21:44:46.682Z,7.17
2018-07-21T21:47:15.197Z,7.47
2018-07-21T21:49:43.700Z,9.57
2018-07-21T21:52:12.243Z,7.03
2018-07-21T21:54:40.729Z,7.20
2018-07-21T21:57:09.378Z,8.53
2018-07-21T21:59:37.882Z,6.97
2018-07-21T22:02:06.573Z,7.00
2018-07-21T22:04:35.131Z,9.23
2018-07-21T22:07:03.653Z,7.53
2018-07-21T22:09:32.233Z,7.50
2018-07-21T22:12:00.873Z,8.83
2018-07-21T22:14:29.073Z,9.83
2018-07-21T22:16:57.611Z,8.10
2018-07-21T22:19:26.156Z,7.60
2018-07-21T22:21:54.702Z,6.87
2018-07-21T22:24:23.218Z,7.77
2018-07-21T22:26:51.765Z,7.80
2018-07-21T22:29:20.387Z,7.50
2018-07-21T22:31:48.918Z,7.60
2018-07-21T22:34:17.456Z,7.37
2018-07-21T22:36:45.961Z,7.23
2018-07-21T22:39:14.501Z,7.50
2018-07-21T22:41:43.028Z,7.43
2018-07-21T22:44:11.598Z,6.87
2018-07-21T22:46:40.128Z,9.20
2018-07-21T22:49:08.721Z,17.50
2018-07-21T22:51:37.250Z,8.13
2018-07-21T22:54:05.966Z,11.00
2018-07-21T22:56:34.503Z,16.13
2018-07-21T22:59:03.062Z,6.70
2018-07-21T23:01:31.595Z,6.40
2018-07-21T23:04:00.146Z,6.20
2018-07-21T23:06:28.678Z,6.40
2018-07-21T23:08:57.331Z,11.60
2018-07-21T23:11:25.843Z,15.60
2018-07-21T23:13:54.372Z,14.23
2018-07-21T23:16:22.878Z,9.00
2018-07-21T23:18:51.461Z,9.80
2018-07-21T23:21:19.960Z,8.80
2018-07-21T23:23:48.474Z,9.70
2018-07-21T23:26:17.005Z,8.27
2018-07-21T23:28:45.540Z,8.90
2018-07-21T23:31:14.059Z,8.60
2018-07-21T23:33:42.578Z,8.30
2018-07-21T23:36:11.237Z,7.83
2018-07-21T23:38:39.759Z,8.80
2018-07-21T23:41:08.301Z,8.50
2018-07-21T23:43:36.823Z,9.77
2018-07-21T23:46:05.409Z,10.27
2018-07-21T23:48:33.943Z,9.13
2018-07-21T23:51:02.431Z,7.47
2018-07-21T23:53:30.969Z,8.33
2018-07-21T23:55:59.454Z,7.87
2018-07-21T23:58:27.980Z,8.07
